»·PEaware :: N520PL KBLI-C72

N520PL :: KBLI-C72

FLIGHT INFORMATION

Flight Status: Arrived
Operator: Privately registered:
United States
More flights under this callsign
Pilot: Isaac A. (44038)
Aircraft: CESSNA 172 SKYHAWK
(C172)
More flights by this aircraft type
Origin: KBLI Bellingham Intl
United States
Destination: C72 Cross Winds
United States
More flights between these airports :: More routes between these airports
Route:
File this flight plan on PilotEdge
Remarks:
Altitude:
(Current/Filed)
7,000ft
Speed:
(Current/Filed)
100kts
Departed: 08-Sep-23 04:46 PM
Arrived: 08-Sep-23 06:04 PM
Distance/Time
Traveled:
206nm/1:18
Distance/Time
To Go:
Arrived

Flight Plot

Page will automatically refresh every two minutes.

Flight plan parsing failed; only flown route is shown


Map Options




Map Legend


Flown Route
Filed Route
Departure Airport
Arrival Airport
Navaid (VOR, NDB)
Fix

Horizontal Profiles

Position Reports

Time Latitude Longitude Heading Altitude Ground
Speed
08-Sep-23 16:44 48.295915 -120.682188 149 9040ft 114kts
08-Sep-23 16:45 48.268015 -120.656855 149 9030ft 119kts
08-Sep-23 16:46 48.240641 -120.631711 144 9253ft 111kts
08-Sep-23 16:47 48.213319 -120.606453 151 9338ft 121kts
08-Sep-23 16:48 48.185674 -120.581982 151 9311ft 112kts
08-Sep-23 16:49 48.159168 -120.558495 150 9229ft 111kts
08-Sep-23 16:50 48.131644 -120.533810 150 9146ft 117kts
08-Sep-23 16:51 48.103630 -120.508647 150 9122ft 118kts
08-Sep-23 16:52 48.075707 -120.481504 138 9169ft 121kts
08-Sep-23 16:53 48.064579 -120.433287 100 9114ft 126kts
08-Sep-23 16:54 48.065073 -120.383164 74 9430ft 107kts
08-Sep-23 16:55 48.070612 -120.338071 78 9900ft 108kts
08-Sep-23 16:56 48.070946 -120.293465 83 10380ft 110kts
08-Sep-23 16:57 48.069778 -120.251664 89 10986ft 102kts
08-Sep-23 16:58 48.068225 -120.208360 90 11427ft 108kts
08-Sep-23 16:59 48.065928 -120.158550 92 11515ft 120kts
08-Sep-23 17:00 48.064083 -120.108210 92 11352ft 121kts
08-Sep-23 17:01 48.064651 -120.056869 80 10656ft 127kts
08-Sep-23 17:02 48.062090 -120.004124 86 9958ft 126kts
08-Sep-23 17:03 48.064745 -119.952663 90 9282ft 123kts
08-Sep-23 17:04 48.061989 -119.903902 92 9278ft 113kts
08-Sep-23 17:06 48.061087 -119.855627 86 9391ft 115kts
08-Sep-23 17:07 48.060137 -119.805917 91 9335ft 121kts
08-Sep-23 17:08 48.058751 -119.754336 90 9331ft 125kts
08-Sep-23 17:09 48.057368 -119.702346 90 9331ft 126kts
08-Sep-23 17:10 48.055992 -119.649697 91 9327ft 127kts
08-Sep-23 17:11 48.054568 -119.597095 91 9332ft 127kts
08-Sep-23 17:12 48.053083 -119.543385 91 9325ft 130kts
08-Sep-23 17:13 48.051587 -119.489728 91 9304ft 128kts
08-Sep-23 17:14 48.050049 -119.435788 92 9207ft 129kts
08-Sep-23 17:15 48.048891 -119.383589 91 9333ft 123kts
08-Sep-23 17:16 48.050992 -119.333331 81 9319ft 121kts
08-Sep-23 17:17 48.051301 -119.283652 104 9264ft 118kts
08-Sep-23 17:18 48.046028 -119.236848 97 9411ft 112kts
08-Sep-23 17:19 48.043325 -119.189191 94 9389ft 119kts
08-Sep-23 17:20 48.041320 -119.139173 91 9339ft 119kts
08-Sep-23 17:21 48.039711 -119.090091 93 9341ft 117kts
08-Sep-23 17:22 48.038123 -119.041220 93 9342ft 117kts
08-Sep-23 17:23 48.036540 -118.992802 91 9365ft 117kts
08-Sep-23 17:24 48.034958 -118.943757 93 9369ft 117kts
08-Sep-23 17:25 48.033361 -118.895734 93 9380ft 115kts
08-Sep-23 17:26 48.031690 -118.846720 90 9358ft 118kts
08-Sep-23 17:27 48.030063 -118.797435 93 9365ft 119kts
08-Sep-23 17:28 48.028317 -118.747732 93 9276ft 120kts
08-Sep-23 17:29 48.026601 -118.698487 92 9285ft 117kts
08-Sep-23 17:30 48.024850 -118.648540 93 9277ft 119kts
08-Sep-23 17:31 48.023072 -118.598756 93 9246ft 118kts
08-Sep-23 17:32 48.021322 -118.550076 93 9246ft 116kts
08-Sep-23 17:33 48.019528 -118.500756 93 9238ft 119kts
08-Sep-23 17:33 48.017998 -118.459400 93 9258ft 118kts
08-Sep-23 17:35 48.015862 -118.402291 93 9274ft 117kts
08-Sep-23 17:36 48.014126 -118.353402 93 9275ft 117kts
08-Sep-23 17:37 48.012178 -118.304231 94 9286ft 118kts
08-Sep-23 17:38 48.010215 -118.255506 94 9096ft 120kts
08-Sep-23 17:38 48.008481 -118.213269 95 8697ft 123kts
08-Sep-23 17:39 48.006407 -118.161554 94 8196ft 124kts
08-Sep-23 17:40 48.004267 -118.108794 95 7519ft 129kts
08-Sep-23 17:42 48.001786 -118.047817 93 6811ft 122kts
08-Sep-23 17:43 47.999712 -117.996720 93 6185ft 121kts
08-Sep-23 17:43 47.997952 -117.954120 93 5691ft 122kts
08-Sep-23 17:44 47.995807 -117.903001 92 5083ft 121kts
08-Sep-23 17:45 47.993665 -117.851991 92 4467ft 122kts
08-Sep-23 17:46 47.991544 -117.801921 92 4078ft 112kts
08-Sep-23 17:47 47.989776 -117.757556 91 4086ft 110kts
08-Sep-23 17:48 47.987983 -117.710861 87 4314ft 106kts
08-Sep-23 17:49 48.006406 -117.681180 50 4790ft 103kts
08-Sep-23 17:50 48.005125 -117.637564 110 4890ft 115kts
08-Sep-23 17:51 47.989154 -117.599730 97 5027ft 90kts
08-Sep-23 17:52 47.984577 -117.566904 42 4233ft 91kts
08-Sep-23 17:53 47.984190 -117.530801 97 4354ft 91kts
08-Sep-23 17:54 47.967664 -117.502426 180 4353ft 95kts
08-Sep-23 17:55 47.955886 -117.529140 298 3851ft 97kts
08-Sep-23 17:56 47.969074 -117.560847 296 3597ft 91kts
08-Sep-23 17:57 47.983815 -117.587001 319 3492ft 88kts
08-Sep-23 17:58 47.998809 -117.574953 63 3485ft 88kts
08-Sep-23 17:59 47.999138 -117.539148 92 3511ft 89kts
08-Sep-23 18:00 47.984457 -117.509267 143 3523ft 90kts
08-Sep-23 18:01 47.965863 -117.498299 220 3073ft 74kts
08-Sep-23 18:02 47.970633 -117.519249 329 2487ft 67kts
08-Sep-23 18:03 47.981501 -117.530324 320 2204ft 11kts
08-Sep-23 18:04 47.983008 -117.531329 127 2205ft 6kts
08-Sep-23 18:05 47.979476 -117.526243 137 2205ft 17kts
08-Sep-23 18:06 47.979333 -117.526040 133 2205ft 0kts

Navigation Log

Ident Type
Flight plan parsing failed, navigation log unavailable